createdAt,value
2019-02-27T08:41:31.482Z,20.78
2019-02-27T08:42:30.805Z,20.62
2019-02-27T08:43:30.555Z,20.41
2019-02-27T08:44:30.410Z,20.36
2019-02-27T08:45:30.330Z,20.40
2019-02-27T08:46:30.176Z,20.39
2019-02-27T08:47:31.181Z,20.39
2019-02-27T08:48:30.185Z,20.40
2019-02-27T08:49:31.935Z,20.22
2019-02-27T08:51:25.419Z,19.94
2019-02-27T08:52:24.887Z,19.85
2019-02-27T08:53:26.899Z,19.73
2019-02-27T08:54:24.863Z,19.55
2019-02-27T08:55:25.008Z,19.45
2019-02-27T08:56:24.970Z,19.22
2019-02-27T08:57:24.977Z,18.99
2019-02-27T08:58:26.687Z,18.88
2019-02-27T08:59:24.986Z,18.67
2019-02-27T09:00:24.904Z,18.53
2019-02-27T09:01:24.895Z,18.38
2019-02-27T09:02:29.250Z,18.22
2019-02-27T09:03:25.914Z,18.07
2019-02-27T09:04:24.888Z,17.89
2019-02-27T09:05:24.947Z,17.67
2019-02-27T09:06:27.269Z,17.70
2019-02-27T09:07:24.870Z,17.46
2019-02-27T09:08:24.835Z,17.37
2019-02-27T09:09:24.856Z,17.23
2019-02-27T09:10:26.714Z,17.14
2019-02-27T09:11:25.801Z,16.98
2019-02-27T09:12:24.766Z,16.84
2019-02-27T09:13:24.664Z,16.83
2019-02-27T09:14:24.750Z,16.62
2019-02-27T09:15:24.727Z,16.57
2019-02-27T09:16:26.119Z,16.47
2019-02-27T09:17:26.919Z,16.41
2019-02-27T09:18:24.746Z,16.25
2019-02-27T09:19:24.709Z,16.16
2019-02-27T09:20:24.723Z,16.24
2019-02-27T09:21:24.909Z,16.28
2019-02-27T09:22:24.691Z,16.41
2019-02-27T09:23:24.575Z,16.21
2019-02-27T09:24:24.717Z,16.15
2019-02-27T09:25:26.491Z,16.38
2019-02-27T09:26:24.639Z,16.46
2019-02-27T09:27:24.490Z,16.72
2019-02-27T09:28:24.463Z,16.91
2019-02-27T09:29:24.670Z,17.11
2019-02-27T09:30:28.854Z,17.29
2019-02-27T09:31:25.594Z,17.53
2019-02-27T09:32:24.447Z,17.59
2019-02-27T09:33:24.577Z,17.91
2019-02-27T09:34:26.888Z,18.19
2019-02-27T09:35:25.150Z,18.35
2019-02-27T09:36:24.634Z,18.49
2019-02-27T09:37:24.484Z,18.77
2019-02-27T09:38:24.919Z,18.93
2019-02-27T09:39:25.048Z,18.92
2019-02-27T09:40:24.477Z,19.00
2019-02-27T09:41:24.890Z,19.18
2019-02-27T09:42:24.479Z,19.30
2019-02-27T09:43:27.326Z,19.30
2019-02-27T09:44:24.443Z,19.34
2019-02-27T09:45:25.488Z,19.23
2019-02-27T09:46:24.913Z,19.16
2019-02-27T09:47:25.760Z,19.04
2019-02-27T09:48:24.373Z,18.96
2019-02-27T09:49:24.442Z,19.08
2019-02-27T09:50:24.405Z,19.05
2019-02-27T09:51:24.361Z,19.09
2019-02-27T09:52:24.937Z,19.26
2019-02-27T09:53:27.400Z,19.30
2019-02-27T09:54:25.317Z,19.24
2019-02-27T09:55:24.163Z,19.33
2019-02-27T09:56:26.097Z,19.33
2019-02-27T09:57:24.294Z,19.42
2019-02-27T09:58:25.876Z,19.42
2019-02-27T09:59:24.257Z,19.44
2019-02-27T10:00:26.620Z,19.42
2019-02-27T10:01:24.272Z,19.49
2019-02-27T10:02:24.329Z,19.51
2019-02-27T10:03:24.224Z,19.56
2019-02-27T10:04:25.938Z,19.64
2019-02-27T10:05:24.236Z,19.70
2019-02-27T10:06:24.207Z,19.78
2019-02-27T10:07:24.227Z,19.79
2019-02-27T10:08:25.215Z,19.91
2019-02-27T10:09:24.167Z,19.92
2019-02-27T10:10:24.166Z,19.86
2019-02-27T10:11:24.141Z,19.91
2019-02-27T10:12:27.123Z,19.86
2019-02-27T10:13:24.116Z,19.85
2019-02-27T10:14:24.141Z,19.69
2019-02-27T10:15:25.297Z,19.64
2019-02-27T10:16:24.662Z,19.51
2019-02-27T10:17:24.110Z,19.39
2019-02-27T10:18:24.066Z,19.29
2019-02-27T10:19:27.000Z,19.22
2019-02-27T10:20:24.091Z,18.98
2019-02-27T10:21:24.599Z,18.75
2019-02-27T10:22:24.637Z,18.66
2019-02-27T10:23:25.070Z,18.71
2019-02-27T10:24:24.006Z,18.77
2019-02-27T10:25:23.992Z,18.70
2019-02-27T10:26:24.918Z,18.70
2019-02-27T10:27:25.502Z,18.58
2019-02-27T10:28:23.972Z,18.62
2019-02-27T10:29:23.960Z,18.55
2019-02-27T10:30:23.953Z,18.53
2019-02-27T10:31:25.981Z,18.50
2019-02-27T10:32:24.490Z,18.50
2019-02-27T10:33:25.789Z,18.56
2019-02-27T10:34:23.896Z,18.48
2019-02-27T10:35:23.871Z,18.48
2019-02-27T10:36:25.019Z,18.50
2019-02-27T10:37:24.025Z,18.37
2019-02-27T10:38:26.155Z,18.33
2019-02-27T10:39:23.829Z,18.22
2019-02-27T10:40:23.830Z,18.26
2019-02-27T10:41:24.408Z,18.22
2019-02-27T10:42:23.786Z,18.19
2019-02-27T10:43:23.630Z,17.98
2019-02-27T10:44:23.773Z,17.94
2019-02-27T10:45:23.763Z,17.83
2019-02-27T10:46:24.350Z,17.59
2019-02-27T10:47:23.864Z,17.60
2019-02-27T10:48:23.723Z,17.51
2019-02-27T10:49:23.732Z,17.38
2019-02-27T10:50:23.689Z,17.22
2019-02-27T10:51:23.682Z,17.22
2019-02-27T10:52:24.417Z,17.22
2019-02-27T10:53:27.115Z,17.29
2019-02-27T10:54:23.691Z,17.38
2019-02-27T10:55:23.636Z,17.49
2019-02-27T10:56:24.235Z,17.65
2019-02-27T10:57:23.632Z,17.89
2019-02-27T10:58:24.660Z,18.20
2019-02-27T10:59:23.628Z,18.38
2019-02-27T11:00:25.227Z,18.68
2019-02-27T11:01:23.590Z,18.92
2019-02-27T11:02:23.744Z,19.15
2019-02-27T11:03:26.408Z,19.36
2019-02-27T11:04:23.582Z,19.52
2019-02-27T11:05:23.549Z,19.41
2019-02-27T11:06:23.499Z,19.04
2019-02-27T11:07:23.550Z,18.53
2019-02-27T11:08:23.567Z,18.12
2019-02-27T11:09:23.491Z,17.71
2019-02-27T11:10:23.517Z,17.57
2019-02-27T11:11:23.478Z,17.27
2019-02-27T11:12:23.513Z,17.23
2019-02-27T11:13:23.482Z,17.29
2019-02-27T11:14:23.502Z,17.63
2019-02-27T11:15:23.434Z,17.64
2019-02-27T11:16:23.446Z,17.85
2019-02-27T11:17:23.371Z,18.07
2019-02-27T11:18:23.394Z,18.30
2019-02-27T11:19:23.369Z,18.33
2019-02-27T11:20:24.702Z,18.55
2019-02-27T11:21:23.338Z,18.83
2019-02-27T11:22:23.517Z,18.96
2019-02-27T11:23:23.363Z,19.12
2019-02-27T11:24:24.770Z,19.33
2019-02-27T11:25:23.295Z,19.44
2019-02-27T11:26:23.341Z,19.52
2019-02-27T11:27:23.318Z,19.67
2019-02-27T11:28:23.341Z,19.81
2019-02-27T11:29:23.880Z,19.94
2019-02-27T11:30:23.283Z,20.00
2019-02-27T11:31:23.267Z,20.21
2019-02-27T11:32:24.016Z,20.37
2019-02-27T11:33:25.859Z,20.48
2019-02-27T11:34:23.302Z,20.66
2019-02-27T11:35:25.253Z,20.66
2019-02-27T11:36:23.249Z,20.77
2019-02-27T11:37:23.227Z,20.96
2019-02-27T11:38:24.873Z,21.00
2019-02-27T11:39:23.030Z,21.14
2019-02-27T11:40:23.293Z,21.15
2019-02-27T11:41:23.160Z,21.27
2019-02-27T11:42:23.395Z,21.37
2019-02-27T11:43:22.973Z,21.50
2019-02-27T11:44:23.112Z,21.59
2019-02-27T11:45:24.611Z,21.66
2019-02-27T11:46:23.126Z,21.74
2019-02-27T11:47:23.126Z,21.74
2019-02-27T11:48:23.491Z,21.74
2019-02-27T11:49:22.894Z,21.66
2019-02-27T11:50:23.039Z,21.48
2019-02-27T11:51:22.997Z,21.42
2019-02-27T11:52:27.845Z,21.29
2019-02-27T11:53:23.969Z,21.27
2019-02-27T11:54:22.839Z,21.26
2019-02-27T11:55:24.471Z,21.17
2019-02-27T11:56:22.964Z,21.21
2019-02-27T11:57:22.997Z,21.17
2019-02-27T11:58:22.932Z,21.10
2019-02-27T11:59:22.796Z,21.02
2019-02-27T12:00:22.939Z,21.15
2019-02-27T12:01:22.910Z,21.20
2019-02-27T12:02:28.757Z,21.36
2019-02-27T12:03:23.883Z,21.55
2019-02-27T12:04:22.878Z,21.81
2019-02-27T12:05:22.864Z,21.92
2019-02-27T12:06:22.853Z,21.98
2019-02-27T12:07:22.885Z,22.13
2019-02-27T12:08:25.753Z,22.20
2019-02-27T12:09:22.782Z,22.20
2019-02-27T12:10:22.795Z,22.23
2019-02-27T12:11:22.800Z,22.33
2019-02-27T12:12:24.130Z,22.35
2019-02-27T12:13:22.856Z,22.40
2019-02-27T12:14:22.774Z,22.33
2019-02-27T12:15:22.798Z,22.28
2019-02-27T12:16:22.791Z,22.23
2019-02-27T12:17:23.292Z,22.14
2019-02-27T12:18:23.639Z,22.07
2019-02-27T12:19:22.697Z,22.19
2019-02-27T12:20:22.664Z,22.14
2019-02-27T12:21:25.462Z,22.17
2019-02-27T12:22:22.514Z,22.26
2019-02-27T12:23:22.697Z,22.38
2019-02-27T12:24:22.673Z,22.50
2019-02-27T12:25:26.748Z,22.65
2019-02-27T12:26:23.598Z,22.90
2019-02-27T12:27:45.193Z,23.17
2019-02-27T12:28:23.675Z,23.36
2019-02-27T12:29:24.120Z,23.65
2019-02-27T12:30:22.634Z,23.77
2019-02-27T12:31:22.601Z,23.90
2019-02-27T12:32:22.604Z,23.98
2019-02-27T12:33:22.429Z,23.89
2019-02-27T12:34:22.552Z,23.95
2019-02-27T12:35:22.502Z,23.99
2019-02-27T12:36:22.538Z,24.10
2019-02-27T12:37:28.099Z,24.15
2019-02-27T12:38:23.386Z,24.15
2019-02-27T12:39:22.462Z,24.10
2019-02-27T12:40:24.999Z,24.03
2019-02-27T12:41:22.455Z,24.13
2019-02-27T12:42:22.463Z,24.14
2019-02-27T12:43:22.472Z,24.15
2019-02-27T12:44:22.446Z,24.08
2019-02-27T12:45:22.485Z,24.00
2019-02-27T12:46:22.399Z,23.96
2019-02-27T12:47:22.388Z,24.02
2019-02-27T12:48:22.371Z,23.88
2019-02-27T12:49:22.385Z,23.86
2019-02-27T12:50:22.366Z,23.74
2019-02-27T12:51:22.347Z,23.80
2019-02-27T12:52:22.771Z,23.68
2019-02-27T12:53:22.305Z,23.70
2019-02-27T12:54:22.326Z,23.58
2019-02-27T12:55:22.332Z,23.52
2019-02-27T12:56:22.277Z,23.52
2019-02-27T12:57:22.282Z,23.51
2019-02-27T12:58:24.398Z,23.51
2019-02-27T12:59:22.107Z,23.51
2019-02-27T13:00:22.262Z,23.41
2019-02-27T13:01:22.276Z,23.34
2019-02-27T13:02:32.451Z,23.33
2019-02-27T13:03:23.198Z,23.33
2019-02-27T13:04:22.069Z,23.22
2019-02-27T13:05:26.450Z,23.22
2019-02-27T13:06:23.220Z,23.21
2019-02-27T13:07:22.206Z,23.22
2019-02-27T13:08:22.157Z,23.18
2019-02-27T13:09:24.514Z,23.09
2019-02-27T13:10:22.149Z,23.13
2019-02-27T13:11:22.342Z,23.07
2019-02-27T13:12:22.019Z,23.03
2019-02-27T13:13:23.316Z,23.00
2019-02-27T13:14:22.100Z,23.07
2019-02-27T13:15:22.085Z,23.05
2019-02-27T13:16:22.061Z,23.03
2019-02-27T13:17:22.279Z,22.99
2019-02-27T13:18:22.091Z,22.98
2019-02-27T13:19:22.056Z,22.98
2019-02-27T13:20:22.039Z,22.95
2019-02-27T13:21:22.042Z,22.88
2019-02-27T13:22:21.990Z,22.96
2019-02-27T13:23:21.851Z,22.90
2019-02-27T13:24:22.007Z,22.88
2019-02-27T13:25:24.097Z,22.93
2019-02-27T13:26:21.966Z,22.83
2019-02-27T13:27:21.936Z,22.83
2019-02-27T13:28:21.919Z,22.78
2019-02-27T13:29:21.959Z,22.78
2019-02-27T13:30:21.892Z,22.77
2019-02-27T13:31:21.906Z,22.77
2019-02-27T13:32:26.383Z,22.73
2019-02-27T13:33:22.889Z,22.73
2019-02-27T13:34:21.905Z,22.72
2019-02-27T13:35:22.961Z,22.69
2019-02-27T13:36:21.862Z,22.69
2019-02-27T13:37:21.827Z,22.70
2019-02-27T13:38:21.682Z,22.69
2019-02-27T13:39:25.417Z,22.69
2019-02-27T13:40:21.667Z,22.59
2019-02-27T13:41:23.630Z,22.56
2019-02-27T13:42:21.755Z,22.54
2019-02-27T13:43:24.393Z,22.53
2019-02-27T13:44:23.129Z,22.47
2019-02-27T13:45:21.747Z,22.54
2019-02-27T13:46:22.698Z,22.44
2019-02-27T13:47:21.577Z,22.41
2019-02-27T13:48:21.721Z,22.41
2019-02-27T13:49:21.679Z,22.43
2019-02-27T13:50:24.421Z,22.44
2019-02-27T13:51:21.719Z,22.38
2019-02-27T13:52:21.686Z,22.44
2019-02-27T13:53:25.806Z,22.38
2019-02-27T13:54:22.630Z,22.33
2019-02-27T13:55:21.630Z,22.33
2019-02-27T13:56:21.666Z,22.32
2019-02-27T13:57:24.991Z,22.35
2019-02-27T13:58:21.613Z,22.32
2019-02-27T13:59:21.583Z,22.33
2019-02-27T14:00:21.691Z,22.32
2019-02-27T14:01:21.548Z,22.29
2019-02-27T14:02:21.590Z,22.26
2019-02-27T14:03:21.415Z,22.22
2019-02-27T14:04:22.669Z,22.28
2019-02-27T14:05:21.645Z,22.23
2019-02-27T14:06:21.551Z,22.23
2019-02-27T14:07:23.477Z,22.15
2019-02-27T14:08:21.384Z,22.15
2019-02-27T14:09:21.451Z,22.15
2019-02-27T14:10:21.485Z,22.05
2019-02-27T14:11:21.448Z,22.13
2019-02-27T14:12:21.427Z,22.11
2019-02-27T14:13:21.272Z,22.03
2019-02-27T14:14:21.431Z,22.11
2019-02-27T14:15:21.449Z,22.07
2019-02-27T14:16:22.385Z,22.13
2019-02-27T14:17:21.384Z,22.13
2019-02-27T14:18:21.343Z,22.08
2019-02-27T14:19:23.905Z,21.99
2019-02-27T14:20:21.385Z,22.07
2019-02-27T14:21:21.333Z,21.98
2019-02-27T14:22:21.324Z,22.01
2019-02-27T14:23:21.309Z,22.03
2019-02-27T14:24:21.385Z,21.98
2019-02-27T14:25:21.457Z,22.03
2019-02-27T14:26:21.258Z,21.99
2019-02-27T14:27:21.247Z,21.98
2019-02-27T14:28:21.685Z,22.03
2019-02-27T14:29:21.225Z,21.99
2019-02-27T14:30:21.220Z,21.92
2019-02-27T14:31:21.779Z,21.99
2019-02-27T14:32:21.225Z,21.99
2019-02-27T14:33:21.051Z,21.98
2019-02-27T14:34:21.174Z,21.95
2019-02-27T14:35:21.751Z,21.99
2019-02-27T14:36:21.164Z,21.99
2019-02-27T14:37:21.703Z,21.96
2019-02-27T14:38:22.031Z,21.92
2019-02-27T14:39:21.136Z,21.92
2019-02-27T14:40:21.107Z,21.98
2019-02-27T14:41:21.127Z,21.92
2019-02-27T14:42:21.340Z,21.93
2019-02-27T14:43:21.096Z,21.89
2019-02-27T14:44:21.049Z,21.90
2019-02-27T14:45:21.079Z,21.92
2019-02-27T14:46:21.612Z,21.88
2019-02-27T14:47:21.068Z,21.88
2019-02-27T14:48:21.577Z,21.88
2019-02-27T14:49:20.983Z,21.85
2019-02-27T14:50:21.012Z,21.88
2019-02-27T14:51:21.014Z,21.76
2019-02-27T14:52:21.044Z,21.82
2019-02-27T14:53:20.963Z,21.88
2019-02-27T14:54:20.957Z,21.81
2019-02-27T14:55:20.825Z,21.79
2019-02-27T14:56:20.813Z,21.89
2019-02-27T14:57:20.794Z,21.84
2019-02-27T14:58:24.068Z,21.93
2019-02-27T14:59:20.767Z,21.89
2019-02-27T15:00:20.747Z,21.89
2019-02-27T15:01:20.873Z,21.88
2019-02-27T15:02:22.425Z,21.79
2019-02-27T15:03:20.860Z,21.82
2019-02-27T15:04:20.751Z,21.88
2019-02-27T15:05:20.841Z,21.82
2019-02-27T15:06:20.688Z,21.89
2019-02-27T15:07:22.256Z,21.76
2019-02-27T15:08:20.806Z,21.61
2019-02-27T15:09:20.819Z,21.59
2019-02-27T15:10:20.892Z,21.43
2019-02-27T15:11:21.770Z,21.42
2019-02-27T15:12:20.816Z,21.21
2019-02-27T15:13:20.766Z,21.15
2019-02-27T15:14:22.269Z,21.20
2019-02-27T15:15:20.731Z,21.06
2019-02-27T15:16:21.892Z,21.08
2019-02-27T15:17:20.950Z,21.15
